createdAt,value
2022-11-06T00:02:20.857Z,97762.91
2022-11-06T00:05:41.565Z,97768.84
2022-11-06T00:08:43.188Z,97756.28
2022-11-06T00:11:44.740Z,97757.19
2022-11-06T00:14:46.339Z,97768.88
2022-11-06T00:17:51.051Z,97766.97
2022-11-06T00:20:52.618Z,97765.16
2022-11-06T00:23:54.872Z,97771.38
2022-11-06T00:26:56.450Z,97770.97
2022-11-06T00:29:57.992Z,97773.47
2022-11-06T00:32:59.593Z,97778.44
2022-11-06T00:36:05.075Z,97771.38
2022-11-06T00:39:06.777Z,97769.50
2022-11-06T00:42:08.309Z,97762.34
2022-11-06T00:45:10.025Z,97759.34
2022-11-06T00:48:11.820Z,97762.19
2022-11-06T00:51:14.824Z,97763.88
2022-11-06T00:54:16.336Z,97763.22
2022-11-06T00:57:17.907Z,97760.75
2022-11-06T01:00:20.568Z,97771.41
2022-11-06T01:03:22.231Z,97767.47
2022-11-06T01:06:24.991Z,97763.75
2022-11-06T01:09:27.082Z,97759.59
2022-11-06T01:12:30.751Z,97762.03
2022-11-06T01:15:32.406Z,97765.53
2022-11-06T01:18:34.172Z,97763.19
2022-11-06T01:21:36.696Z,97766.91
2022-11-06T01:24:38.327Z,97764.28
2022-11-06T01:27:39.954Z,97764.78
2022-11-06T01:30:41.491Z,97762.13
2022-11-06T01:33:44.281Z,97753.16
2022-11-06T01:36:46.743Z,97756.84
2022-11-06T01:39:49.062Z,97756.31
2022-11-06T01:42:50.667Z,97758.09
2022-11-06T01:45:53.331Z,97751.66
2022-11-06T01:48:56.023Z,97752.44
2022-11-06T01:51:58.836Z,97748.47
2022-11-06T01:55:08.291Z,97735.78
2022-11-06T01:58:12.555Z,97734.75
2022-11-06T02:01:14.287Z,97731.66
2022-11-06T02:04:18.298Z,97722.41
2022-11-06T02:07:19.869Z,97719.00
2022-11-06T02:10:21.437Z,97707.34
2022-11-06T02:13:22.959Z,97707.88
2022-11-06T02:16:24.485Z,97702.06
2022-11-06T02:19:44.650Z,97698.13
2022-11-06T02:22:46.192Z,97693.97
2022-11-06T02:26:06.080Z,97691.63
2022-11-06T02:29:08.294Z,97683.69
2022-11-06T02:32:11.034Z,97676.84
2022-11-06T02:35:20.548Z,97671.50
2022-11-06T02:38:26.584Z,97661.53
2022-11-06T02:41:32.080Z,97653.91
2022-11-06T02:44:34.328Z,97657.25
2022-11-06T02:47:35.838Z,97649.09
2022-11-06T02:50:40.184Z,97644.63
2022-11-06T02:53:46.789Z,97638.66
2022-11-06T02:56:49.114Z,97641.06
2022-11-06T02:59:52.597Z,97634.34
2022-11-06T03:02:54.298Z,97629.09
2022-11-06T03:06:01.315Z,97629.63
2022-11-06T03:09:03.922Z,97631.44
2022-11-06T03:12:25.881Z,97628.06
2022-11-06T03:15:35.039Z,97627.31
2022-11-06T03:18:38.963Z,97614.94
2022-11-06T03:21:45.960Z,97625.50
2022-11-06T03:24:47.502Z,97614.94
2022-11-06T03:28:07.167Z,97619.19
2022-11-06T03:31:10.152Z,97618.13
2022-11-06T03:34:12.998Z,97614.44
2022-11-06T03:37:16.239Z,97612.03
2022-11-06T03:40:18.154Z,97613.09
2022-11-06T03:43:20.939Z,97613.66
2022-11-06T03:46:25.124Z,97606.78
2022-11-06T03:49:28.528Z,97606.44
2022-11-06T03:52:42.513Z,97606.94
2022-11-06T03:55:49.275Z,97606.19
2022-11-06T03:58:50.877Z,97599.09
2022-11-06T04:01:53.691Z,97585.69
2022-11-06T04:05:03.608Z,97586.50
2022-11-06T04:08:23.839Z,97579.59
2022-11-06T04:11:44.674Z,97571.63
2022-11-06T04:14:47.093Z,97575.25
2022-11-06T04:17:48.568Z,97572.06
2022-11-06T04:21:26.069Z,97576.00
2022-11-06T04:24:50.268Z,97565.22
2022-11-06T04:27:57.899Z,97549.63
2022-11-06T04:31:06.179Z,97545.41
2022-11-06T04:34:09.552Z,97539.84
2022-11-06T04:37:12.820Z,97530.34
2022-11-06T04:40:25.213Z,97528.25
2022-11-06T04:43:45.359Z,97526.63
2022-11-06T04:46:53.516Z,97522.44
2022-11-06T04:49:56.468Z,97507.41
2022-11-06T04:52:58.113Z,97497.44
2022-11-06T04:56:21.441Z,97503.84
2022-11-06T04:59:23.245Z,97504.41
2022-11-06T05:02:24.908Z,97514.97
2022-11-06T05:05:27.338Z,97506.28
2022-11-06T05:08:28.870Z,97496.81
2022-11-06T05:11:30.448Z,97483.31
2022-11-06T05:14:32.695Z,97477.22
2022-11-06T05:17:36.696Z,97470.38
2022-11-06T05:20:38.404Z,97462.72
2022-11-06T05:23:40.121Z,97450.38
2022-11-06T05:26:41.759Z,97451.41
2022-11-06T05:29:43.308Z,97444.84
2022-11-06T05:32:44.848Z,97437.19
2022-11-06T05:35:46.437Z,97437.72
2022-11-06T05:38:47.990Z,97428.72
2022-11-06T05:41:50.297Z,97432.44
2022-11-06T05:44:52.100Z,97431.41
2022-11-06T05:47:53.699Z,97431.75
2022-11-06T05:51:01.887Z,97438.38
2022-11-06T05:54:04.379Z,97429.16
2022-11-06T05:57:05.864Z,97430.72
2022-11-06T06:00:07.769Z,97426.75
2022-11-06T06:03:14.140Z,97410.97
2022-11-06T06:06:15.745Z,97406.47
2022-11-06T06:09:17.274Z,97388.78
2022-11-06T06:12:18.871Z,97390.91
2022-11-06T06:15:20.451Z,97383.47
2022-11-06T06:18:21.983Z,97378.19
2022-11-06T06:21:23.516Z,97372.09
2022-11-06T06:24:25.229Z,97366.28
2022-11-06T06:27:27.684Z,97361.81
2022-11-06T06:30:29.317Z,97345.44
2022-11-06T06:33:30.847Z,97348.34
2022-11-06T06:36:32.392Z,97352.28
2022-11-06T06:39:33.876Z,97342.53
2022-11-06T06:42:35.538Z,97336.19
2022-11-06T06:45:37.106Z,97332.03
2022-11-06T06:48:38.818Z,97338.75
2022-11-06T06:51:40.368Z,97333.16
2022-11-06T06:54:41.996Z,97334.31
2022-11-06T06:57:43.539Z,97337.31
2022-11-06T07:00:45.346Z,97330.22
2022-11-06T07:03:47.000Z,97331.31
2022-11-06T07:06:48.563Z,97321.28
2022-11-06T07:09:50.141Z,97322.38
2022-11-06T07:12:51.660Z,97312.06
2022-11-06T07:15:53.195Z,97306.78
2022-11-06T07:18:54.786Z,97318.13
2022-11-06T07:21:56.286Z,97317.88
2022-11-06T07:24:57.828Z,97322.91
2022-11-06T07:28:06.008Z,97316.84
2022-11-06T07:31:08.292Z,97315.53
2022-11-06T07:34:10.008Z,97314.47
2022-11-06T07:37:11.575Z,97308.09
2022-11-06T07:40:14.828Z,97305.94
2022-11-06T07:43:16.821Z,97292.47
2022-11-06T07:46:19.604Z,97304.31
2022-11-06T07:49:21.100Z,97309.59
2022-11-06T07:52:22.667Z,97310.38
2022-11-06T07:55:24.307Z,97304.88
2022-11-06T07:58:25.980Z,97308.59
2022-11-06T08:01:27.587Z,97300.66
2022-11-06T08:04:29.203Z,97292.53
2022-11-06T08:07:30.742Z,97285.38
2022-11-06T08:10:32.379Z,97282.34
2022-11-06T08:13:35.118Z,97281.78
2022-11-06T08:16:36.615Z,97281.47
2022-11-06T08:19:38.268Z,97275.59
2022-11-06T08:22:39.804Z,97283.50
2022-11-06T08:25:41.420Z,97289.25
2022-11-06T08:28:43.285Z,97275.81
2022-11-06T08:31:44.898Z,97268.28
2022-11-06T08:34:46.461Z,97281.66
2022-11-06T08:37:48.012Z,97283.06
2022-11-06T08:40:53.611Z,97279.03
2022-11-06T08:43:55.606Z,97272.44
2022-11-06T08:46:57.173Z,97271.72
2022-11-06T08:49:58.683Z,97258.28
2022-11-06T08:53:04.389Z,97268.00
2022-11-06T08:56:06.292Z,97266.91
2022-11-06T08:59:07.880Z,97266.47
2022-11-06T09:02:13.187Z,97259.38
2022-11-06T09:05:14.834Z,97256.41
2022-11-06T09:08:16.390Z,97251.63
2022-11-06T09:11:17.998Z,97248.66
2022-11-06T09:14:19.532Z,97235.13
2022-11-06T09:17:23.785Z,97235.63
2022-11-06T09:20:25.622Z,97234.59
2022-11-06T09:23:27.259Z,97236.63
2022-11-06T09:26:28.784Z,97228.00
2022-11-06T09:29:30.351Z,97223.22
2022-11-06T09:32:31.971Z,97216.88
2022-11-06T09:35:34.118Z,97213.00
2022-11-06T09:38:35.698Z,97220.28
2022-11-06T09:41:37.170Z,97216.72
2022-11-06T09:44:52.499Z,97210.38
2022-11-06T09:47:59.636Z,97216.88
2022-11-06T09:51:14.767Z,97212.81
2022-11-06T09:54:24.051Z,97203.97
2022-11-06T09:57:29.800Z,97204.00
2022-11-06T10:00:31.365Z,97197.81
2022-11-06T10:03:36.202Z,97191.53
2022-11-06T10:06:37.734Z,97179.53
2022-11-06T10:09:39.263Z,97194.59
2022-11-06T10:12:50.435Z,97191.53
2022-11-06T10:15:58.596Z,97182.69
2022-11-06T10:19:06.910Z,97186.97
2022-11-06T10:22:08.468Z,97183.81
2022-11-06T10:25:10.056Z,97183.50
2022-11-06T10:28:21.724Z,97183.25
2022-11-06T10:31:26.341Z,97182.53
2022-11-06T10:34:44.143Z,97177.16
2022-11-06T10:37:50.128Z,97163.41
2022-11-06T10:40:53.768Z,97150.19
2022-11-06T10:43:57.313Z,97140.09
2022-11-06T10:47:01.192Z,97151.84
2022-11-06T10:50:03.977Z,97156.41
2022-11-06T10:53:09.410Z,97159.41
2022-11-06T10:56:29.779Z,97142.25
2022-11-06T10:59:31.368Z,97158.09
2022-11-06T11:02:36.537Z,97160.03
2022-11-06T11:05:39.333Z,97157.91
2022-11-06T11:08:45.280Z,97152.75
2022-11-06T11:11:49.332Z,97148.47
2022-11-06T11:15:14.109Z,97131.44
2022-11-06T11:18:17.522Z,97110.72
2022-11-06T11:21:19.406Z,97107.47
2022-11-06T11:24:21.079Z,97096.84
2022-11-06T11:27:22.583Z,97101.41
2022-11-06T11:30:29.626Z,97086.91
2022-11-06T11:33:31.320Z,97097.78
2022-11-06T11:36:51.267Z,97111.47
2022-11-06T11:39:52.876Z,97097.56
2022-11-06T11:42:54.402Z,97111.06
2022-11-06T11:46:03.792Z,97100.88
2022-11-06T11:49:05.685Z,97087.25
2022-11-06T11:52:11.960Z,97084.25
2022-11-06T11:55:17.512Z,97071.72
2022-11-06T11:58:23.396Z,97080.06
2022-11-06T12:01:34.361Z,97069.00
2022-11-06T12:04:41.768Z,97062.91
2022-11-06T12:07:46.340Z,97056.47
2022-11-06T12:10:48.227Z,97050.88
2022-11-06T12:14:13.103Z,97061.75
2022-11-06T12:17:15.852Z,97060.56
2022-11-06T12:20:27.959Z,97054.72
2022-11-06T12:23:29.426Z,97058.81
2022-11-06T12:26:36.867Z,97044.03
2022-11-06T12:29:40.058Z,97022.25
2022-11-06T12:33:00.526Z,97031.38
2022-11-06T12:36:07.390Z,97023.88
2022-11-06T12:39:19.909Z,97015.00
2022-11-06T12:42:21.419Z,96998.69
2022-11-06T12:45:22.957Z,96999.59
2022-11-06T12:48:30.601Z,96995.44
2022-11-06T12:51:50.728Z,96981.50
2022-11-06T12:55:15.116Z,96980.59
2022-11-06T12:58:40.251Z,96973.94
2022-11-06T13:02:00.360Z,96976.13
2022-11-06T13:05:03.446Z,96967.84
2022-11-06T13:08:24.158Z,96965.97
2022-11-06T13:11:48.974Z,96961.06
2022-11-06T13:15:08.987Z,96959.97
2022-11-06T13:18:33.769Z,96950.78
2022-11-06T13:21:50.595Z,96942.91
2022-11-06T13:25:10.328Z,96943.72
2022-11-06T13:28:30.519Z,96941.06
2022-11-06T13:31:37.978Z,96932.50
2022-11-06T13:34:40.234Z,96918.31
2022-11-06T13:37:42.288Z,96915.56
2022-11-06T13:40:44.404Z,96913.38
2022-11-06T13:43:47.648Z,96915.88
2022-11-06T13:46:49.771Z,96905.75
2022-11-06T13:49:54.056Z,96906.53
2022-11-06T13:53:27.971Z,96897.19
2022-11-06T13:56:34.415Z,96892.53
2022-11-06T13:59:40.500Z,96891.56
2022-11-06T14:03:01.449Z,96886.09
2022-11-06T14:06:04.085Z,96880.66
2022-11-06T14:09:06.725Z,96879.28
2022-11-06T14:12:13.936Z,96867.72
2022-11-06T14:15:23.467Z,96862.75
2022-11-06T14:18:25.061Z,96864.31
2022-11-06T14:21:26.583Z,96866.03
2022-11-06T14:24:30.955Z,96868.22
2022-11-06T14:27:35.359Z,96861.84
2022-11-06T14:31:10.360Z,96860.44
2022-11-06T14:34:03.932Z,96861.84
2022-11-06T14:37:29.859Z,96860.91
2022-11-06T14:40:32.791Z,96861.06
2022-11-06T14:43:34.535Z,96859.97
2022-11-06T14:46:36.095Z,96859.97
2022-11-06T14:49:38.858Z,96856.09
2022-11-06T14:52:42.352Z,96841.56
2022-11-06T14:55:45.572Z,96843.13
2022-11-06T14:59:06.652Z,96849.97
2022-11-06T15:02:11.284Z,96844.38
2022-11-06T15:05:16.617Z,96839.84
2022-11-06T15:08:36.917Z,96844.38
2022-11-06T15:11:47.938Z,96839.53
2022-11-06T15:14:52.854Z,96837.03
2022-11-06T15:17:54.396Z,96838.13
2022-11-06T15:20:56.536Z,96828.63
2022-11-06T15:24:08.527Z,96833.16
2022-11-06T15:27:15.486Z,96819.41
2022-11-06T15:30:17.392Z,96813.31
2022-11-06T15:33:21.831Z,96808.47
2022-11-06T15:36:23.352Z,96815.34
2022-11-06T15:39:33.421Z,96806.28
2022-11-06T15:42:35.295Z,96809.88
2022-11-06T15:45:37.393Z,96813.00
2022-11-06T15:48:38.954Z,96803.81
2022-11-06T15:51:40.440Z,96796.28
2022-11-06T15:54:43.972Z,96800.97
2022-11-06T15:57:45.882Z,96800.97
2022-11-06T16:00:47.638Z,96800.97
2022-11-06T16:03:50.785Z,96798.00
2022-11-06T16:06:53.848Z,96795.06
2022-11-06T16:09:55.375Z,96792.84
2022-11-06T16:12:56.983Z,96787.25
2022-11-06T16:16:01.464Z,96790.38
2022-11-06T16:19:03.895Z,96782.25
2022-11-06T16:22:07.780Z,96779.28
2022-11-06T16:25:16.024Z,96776.94
2022-11-06T16:28:18.652Z,96774.75
2022-11-06T16:31:23.886Z,96751.97
2022-11-06T16:34:31.462Z,96769.91
2022-11-06T16:37:36.432Z,96775.69
2022-11-06T16:40:44.160Z,96774.59
2022-11-06T16:43:45.800Z,96773.50
2022-11-06T16:47:23.018Z,96782.22
2022-11-06T16:50:44.492Z,96778.03
2022-11-06T16:53:59.199Z,96778.97
2022-11-06T16:57:10.415Z,96769.88
2022-11-06T17:00:12.078Z,96773.31
2022-11-06T17:03:20.442Z,96769.28
2022-11-06T17:06:29.390Z,96753.34
2022-11-06T17:09:34.892Z,96746.16
2022-11-06T17:12:36.375Z,96747.41
2022-11-06T17:15:38.010Z,96740.56
2022-11-06T17:18:39.572Z,96743.66
2022-11-06T17:21:41.236Z,96733.81
2022-11-06T17:24:44.045Z,96734.91
2022-11-06T17:27:45.644Z,96740.22
2022-11-06T17:30:47.727Z,96744.13
2022-11-06T17:33:49.514Z,96741.16
2022-11-06T17:36:51.018Z,96738.94
2022-11-06T17:39:52.744Z,96736.78
2022-11-06T17:42:56.126Z,96737.09
2022-11-06T17:45:57.790Z,96750.38
2022-11-06T17:48:59.406Z,96737.88
2022-11-06T17:52:01.143Z,96741.75
2022-11-06T17:55:02.886Z,96737.69
2022-11-06T17:58:04.441Z,96736.78
2022-11-06T18:01:06.882Z,96735.50
2022-11-06T18:04:08.620Z,96741.31
2022-11-06T18:07:10.179Z,96747.38
2022-11-06T18:10:11.722Z,96734.56
2022-11-06T18:13:13.227Z,96728.66
2022-11-06T18:16:33.554Z,96730.84
2022-11-06T18:19:35.164Z,96727.28
2022-11-06T18:22:36.675Z,96719.63
2022-11-06T18:25:38.231Z,96727.72
2022-11-06T18:28:40.051Z,96720.88
2022-11-06T18:31:41.786Z,96719.00
2022-11-06T18:34:43.390Z,96719.19
2022-11-06T18:37:45.072Z,96719.50
2022-11-06T18:40:51.377Z,96720.31
2022-11-06T18:43:57.274Z,96713.63
2022-11-06T18:46:58.816Z,96719.53
2022-11-06T18:50:00.370Z,96724.38
2022-11-06T18:53:02.348Z,96735.13
2022-11-06T18:56:04.270Z,96730.63
2022-11-06T18:59:06.739Z,96726.59
2022-11-06T19:02:11.404Z,96721.72
2022-11-06T19:05:13.250Z,96726.09
2022-11-06T19:08:15.036Z,96728.31
2022-11-06T19:11:17.418Z,96732.66
2022-11-06T19:14:19.072Z,96722.19
2022-11-06T19:17:20.709Z,96719.06
2022-11-06T19:20:22.585Z,96717.78
2022-11-06T19:23:24.169Z,96722.66
2022-11-06T19:26:31.214Z,96712.06
2022-11-06T19:29:33.391Z,96708.47
2022-11-06T19:32:34.954Z,96715.94
2022-11-06T19:35:36.524Z,96716.72
2022-11-06T19:38:38.033Z,96734.03
2022-11-06T19:41:39.561Z,96737.59
2022-11-06T19:44:41.100Z,96738.84
2022-11-06T19:47:42.626Z,96735.41
2022-11-06T19:50:59.318Z,96732.94
2022-11-06T19:54:01.710Z,96734.22
2022-11-06T19:57:27.760Z,96736.72
2022-11-06T20:00:24.849Z,96727.69
2022-11-06T20:03:26.416Z,96718.63
2022-11-06T20:06:28.032Z,96719.72
2022-11-06T20:09:29.553Z,96722.22
2022-11-06T20:12:31.143Z,96710.66
2022-11-06T20:15:32.986Z,96716.28
2022-11-06T20:18:37.877Z,96715.63
2022-11-06T20:21:39.447Z,96718.41
2022-11-06T20:24:41.542Z,96713.97
2022-11-06T20:27:43.163Z,96727.25
2022-11-06T20:30:44.679Z,96713.16
2022-11-06T20:33:46.544Z,96706.56
2022-11-06T20:36:48.107Z,96707.56
2022-11-06T20:39:52.029Z,96709.63
2022-11-06T20:42:53.543Z,96706.78
2022-11-06T20:45:55.072Z,96711.66
2022-11-06T20:48:58.291Z,96703.88
2022-11-06T20:52:13.685Z,96701.63
2022-11-06T20:55:15.821Z,96714.28
2022-11-06T20:58:17.368Z,96709.63
2022-11-06T21:01:21.015Z,96708.69
2022-11-06T21:04:22.760Z,96720.13
2022-11-06T21:07:24.322Z,96719.34
2022-11-06T21:10:25.977Z,96703.59
2022-11-06T21:13:27.828Z,96720.44
2022-11-06T21:16:36.088Z,96709.53
2022-11-06T21:19:37.726Z,96714.34
2022-11-06T21:22:39.272Z,96706.41
2022-11-06T21:25:45.096Z,96723.28
2022-11-06T21:28:46.948Z,96724.84
2022-11-06T21:31:49.318Z,96725.94
2022-11-06T21:34:50.992Z,96727.16
2022-11-06T21:37:52.511Z,96728.69
2022-11-06T21:40:54.044Z,96725.44
2022-11-06T21:43:55.935Z,96737.00
2022-11-06T21:46:57.477Z,96740.88
2022-11-06T21:49:59.150Z,96740.09
2022-11-06T21:53:19.336Z,96747.75
2022-11-06T21:56:25.833Z,96740.88
2022-11-06T21:59:28.550Z,96738.69
2022-11-06T22:02:30.146Z,96747.13
2022-11-06T22:05:31.797Z,96739.00
2022-11-06T22:08:37.173Z,96746.66
2022-11-06T22:11:42.538Z,96747.59
2022-11-06T22:14:44.251Z,96743.53
2022-11-06T22:17:45.752Z,96755.56
2022-11-06T22:20:47.233Z,96745.44
2022-11-06T22:23:48.859Z,96749.63
2022-11-06T22:26:50.363Z,96749.00
2022-11-06T22:29:51.839Z,96747.59
2022-11-06T22:32:53.370Z,96758.81
2022-11-06T22:36:08.144Z,96742.97
2022-11-06T22:39:10.011Z,96751.41
2022-11-06T22:42:11.559Z,96765.03
2022-11-06T22:45:13.030Z,96763.63
2022-11-06T22:48:14.912Z,96770.69
2022-11-06T22:51:17.499Z,96768.66
2022-11-06T22:54:20.120Z,96765.50
2022-11-06T22:57:21.706Z,96772.41
2022-11-06T23:00:23.320Z,96777.38
2022-11-06T23:03:25.500Z,96772.06
2022-11-06T23:06:27.074Z,96784.56
2022-11-06T23:09:28.592Z,96788.31
2022-11-06T23:12:30.091Z,96789.13
2022-11-06T23:15:31.659Z,96801.75
2022-11-06T23:18:33.780Z,96797.88
2022-11-06T23:21:35.400Z,96798.00
2022-11-06T23:24:36.965Z,96807.84
2022-11-06T23:27:38.501Z,96811.00
2022-11-06T23:30:39.977Z,96803.94
2022-11-06T23:33:42.076Z,96795.69
2022-11-06T23:36:43.589Z,96789.59
2022-11-06T23:39:45.080Z,96787.91
2022-11-06T23:42:50.343Z,96776.81
2022-11-06T23:45:52.231Z,96790.69
2022-11-06T23:48:53.789Z,96784.31
2022-11-06T23:51:55.548Z,96779.28
2022-11-06T23:54:57.111Z,96791.50
2022-11-06T23:57:58.761Z,96801.78
